KMDQ

Huntsville Executive Tom Sharp Jr Field Airport

Huntsville, Alabama, USA
METAR KMDQ 101510Z AUTO 35009KT 10SM OVC008 03/02 A3020 RMK A02 T00330020
Observed Flight Rules
Dec-10 @ 15:10 UTC (38 minutes ago) Instrument Flight Rules
Wind Visibility Clouds
350° at 9 knots 10 miles
  • Overcast at 800' AGL
Temperatures Readings
Current 3°C / 37°F
Dewpoint 2°C / 36°F
Humidity 93%
Altimeter 30.2" Hg
Pressure 1023 hPa
Elevation 230
METAR KMDQ 101510Z AUTO 35009KT 10SM OVC008 03/02 A3020 RMK A02 T00330020
Observed Flight Rules
Dec-10 @ 15:10 UTC
(38 minutes ago)
IFR
Wind Visibility
350° at 9 knots 10 miles
Clouds
  • Overcast at 800' AGL
Temperature Dewpoint
3°C / 37°F 2°C / 36°F
Humidity Altimeter Pressure
93% 30.2" Hg 1023 hPa